New Richland, MN (56072)

3:41 AM CDT on August 28, 2016 (GMT -0500)
OTISCO TOWNSHIP | | Change Station
Active Advisory: Dense Fog Advisory

Elev 1175 ft 44.01 °N, 93.48 °W | Updated 24 seconds ago

Clear
Clear
60.4 °F
Feels Like 60.4 °F
N
0.0
Wind Variable Wind from North
Gusts 0.0 mph

Today
High -- | Low -- °F
--% Chance of Precip.
Yesterday
High -- | Low -- °F
Precip. -- in
Pressure 30.10 in
Visibility 4.0 miles
Clouds Clear
Dew Point 60 °F
Humidity 99%
Rainfall 0.00 in
Snow Depth Not available.
6:33 AM 7:55 PM
Waning Crescent, 17% visible
METAR KACQ 280834Z AUTO 12005KT 4SM BR CLR 15/15 A3010 RMK AO2
Pressure 30.10 in
Visibility 4.0 miles
Clouds Clear
Dew Point 60 °F
Humidity 99%
Rainfall 0.00 in
Snow Depth Not available.
6:33 AM 7:55 PM
Waning Crescent, 17% visible
METAR KACQ 280834Z AUTO 12005KT 4SM BR CLR 15/15 A3010 RMK AO2

10-Day Weather Forecast

Almanac

Astronomy

Aug. 28, 2016 Rise Set
Actual Time
Civil Twilight
Nautical Twilight
Astronomical Twilight
Moon
Length of Visible Light
Length of Day
Tomorrow will be .
, % of the Moon is Illuminated

Today's Extremes

State Highs State Lows

Community

WunderPhotos

Upload Photos

1,935,540 photos uploaded!

WunderBlog® & News

Nearby

Air Quality

  Air Quality AQ Index Pollutant
Not available.

Snow Depth

Station Depth Elevation

Earthquake Activity

City Distance Mag. Time & Date
Minimum magnitude displayed is 2.5.

Coastal Water Temperatures

Place Temperature

Stations

Nearby Weather Stations

Station Location Temp. Windchill Dew Point Humidity Wind Precip. Elev Updated Type
                   

Watches & Warnings

Dense Fog Advisory
Issued: 3:23 AM CDT Aug. 28, 2016 – National Weather Service

... Dense fog advisory now in effect until 9 am CDT this morning...

* visibility... less than a quarter mile.

* Impacts... it may be difficult to see the Road when driving early
this morning.

Precautionary/preparedness actions...

A dense fog advisory means visibilities will frequently be
reduced to less than one quarter mile. If driving... slow down...
use your headlights... and leave plenty of distance ahead of you.